sensor_id;sensor_type;location;lat;lon;timestamp;P1;durP1;ratioP1;P2;durP2;ratioP2
28003;SDS011;15330;51.234;6.754;2022-12-07T00:01:08;44.78;;;26.30;;
28003;SDS011;15330;51.234;6.754;2022-12-07T00:03:34;43.50;;;25.58;;
28003;SDS011;15330;51.234;6.754;2022-12-07T00:06:00;45.72;;;27.95;;
28003;SDS011;15330;51.234;6.754;2022-12-07T00:08:27;41.78;;;25.90;;
28003;SDS011;15330;51.234;6.754;2022-12-07T00:10:52;45.45;;;27.60;;
28003;SDS011;15330;51.234;6.754;2022-12-07T00:13:17;48.17;;;26.88;;
28003;SDS011;15330;51.234;6.754;2022-12-07T00:15:43;43.38;;;27.23;;
28003;SDS011;15330;51.234;6.754;2022-12-07T00:18:09;47.53;;;27.52;;
28003;SDS011;15330;51.234;6.754;2022-12-07T00:20:34;44.00;;;27.23;;
28003;SDS011;15330;51.234;6.754;2022-12-07T00:23:00;39.15;;;25.70;;
28003;SDS011;15330;51.234;6.754;2022-12-07T00:25:25;41.22;;;27.48;;
28003;SDS011;15330;51.234;6.754;2022-12-07T00:27:52;41.03;;;26.85;;
28003;SDS011;15330;51.234;6.754;2022-12-07T00:30:20;41.67;;;26.58;;
28003;SDS011;15330;51.234;6.754;2022-12-07T00:32:46;48.53;;;29.38;;
28003;SDS011;15330;51.234;6.754;2022-12-07T00:35:11;43.35;;;28.48;;
28003;SDS011;15330;51.234;6.754;2022-12-07T00:37:36;44.40;;;28.83;;
28003;SDS011;15330;51.234;6.754;2022-12-07T00:40:02;45.38;;;27.55;;
28003;SDS011;15330;51.234;6.754;2022-12-07T00:42:27;44.78;;;27.45;;
28003;SDS011;15330;51.234;6.754;2022-12-07T00:44:53;43.70;;;27.60;;
28003;SDS011;15330;51.234;6.754;2022-12-07T00:47:18;40.17;;;25.60;;
28003;SDS011;15330;51.234;6.754;2022-12-07T00:49:43;46.47;;;26.52;;
28003;SDS011;15330;51.234;6.754;2022-12-07T00:52:09;41.38;;;26.63;;
28003;SDS011;15330;51.234;6.754;2022-12-07T00:54:34;45.70;;;28.85;;
28003;SDS011;15330;51.234;6.754;2022-12-07T00:56:59;45.72;;;27.88;;
28003;SDS011;15330;51.234;6.754;2022-12-07T00:59:25;45.10;;;28.17;;
28003;SDS011;15330;51.234;6.754;2022-12-07T01:01:50;42.45;;;28.50;;
28003;SDS011;15330;51.234;6.754;2022-12-07T01:04:15;48.17;;;29.77;;
28003;SDS011;15330;51.234;6.754;2022-12-07T01:06:41;46.47;;;28.52;;
28003;SDS011;15330;51.234;6.754;2022-12-07T01:09:06;41.80;;;28.58;;
28003;SDS011;15330;51.234;6.754;2022-12-07T01:11:32;41.13;;;28.77;;
28003;SDS011;15330;51.234;6.754;2022-12-07T01:13:58;44.50;;;29.63;;
28003;SDS011;15330;51.234;6.754;2022-12-07T01:16:28;48.05;;;30.10;;
28003;SDS011;15330;51.234;6.754;2022-12-07T01:18:55;48.97;;;29.38;;
28003;SDS011;15330;51.234;6.754;2022-12-07T01:21:23;44.35;;;29.70;;
28003;SDS011;15330;51.234;6.754;2022-12-07T01:23:50;51.05;;;29.90;;
28003;SDS011;15330;51.234;6.754;2022-12-07T01:26:18;49.28;;;29.85;;
28003;SDS011;15330;51.234;6.754;2022-12-07T01:28:45;48.10;;;30.25;;
28003;SDS011;15330;51.234;6.754;2022-12-07T01:31:12;42.88;;;30.02;;
28003;SDS011;15330;51.234;6.754;2022-12-07T01:33:40;46.30;;;30.00;;
28003;SDS011;15330;51.234;6.754;2022-12-07T01:39:06;45.22;;;30.33;;
28003;SDS011;15330;51.234;6.754;2022-12-07T01:41:33;49.58;;;31.58;;
28003;SDS011;15330;51.234;6.754;2022-12-07T01:49:26;51.00;;;30.92;;
28003;SDS011;15330;51.234;6.754;2022-12-07T01:52:08;47.95;;;30.40;;
28003;SDS011;15330;51.234;6.754;2022-12-07T01:54:40;47.95;;;31.55;;
28003;SDS011;15330;51.234;6.754;2022-12-07T01:57:08;50.35;;;30.08;;
28003;SDS011;15330;51.234;6.754;2022-12-07T01:59:34;50.35;;;30.70;;
28003;SDS011;15330;51.234;6.754;2022-12-07T02:02:00;47.63;;;30.17;;
28003;SDS011;15330;51.234;6.754;2022-12-07T02:04:29;47.30;;;29.50;;
28003;SDS011;15330;51.234;6.754;2022-12-07T02:06:55;49.38;;;29.90;;
28003;SDS011;15330;51.234;6.754;2022-12-07T02:09:22;44.67;;;30.02;;
28003;SDS011;15330;51.234;6.754;2022-12-07T02:11:48;51.28;;;29.67;;
28003;SDS011;15330;51.234;6.754;2022-12-07T02:14:14;53.10;;;31.33;;
28003;SDS011;15330;51.234;6.754;2022-12-07T02:25:10;61.85;;;30.00;;
28003;SDS011;15330;51.234;6.754;2022-12-07T02:27:46;49.70;;;31.20;;
28003;SDS011;15330;51.234;6.754;2022-12-07T02:30:17;51.97;;;31.33;;
28003;SDS011;15330;51.234;6.754;2022-12-07T02:35:24;52.45;;;31.98;;
28003;SDS011;15330;51.234;6.754;2022-12-07T02:40:40;52.00;;;32.38;;
28003;SDS011;15330;51.234;6.754;2022-12-07T02:43:12;47.00;;;30.85;;
28003;SDS011;15330;51.234;6.754;2022-12-07T02:45:42;46.40;;;30.45;;
28003;SDS011;15330;51.234;6.754;2022-12-07T02:48:09;48.95;;;30.45;;
28003;SDS011;15330;51.234;6.754;2022-12-07T02:50:38;44.78;;;30.20;;
28003;SDS011;15330;51.234;6.754;2022-12-07T02:53:04;48.55;;;29.60;;
28003;SDS011;15330;51.234;6.754;2022-12-07T02:55:31;46.95;;;30.63;;
28003;SDS011;15330;51.234;6.754;2022-12-07T03:03:39;45.30;;;29.48;;
28003;SDS011;15330;51.234;6.754;2022-12-07T03:06:16;47.13;;;31.20;;
28003;SDS011;15330;51.234;6.754;2022-12-07T03:11:58;46.45;;;30.48;;
28003;SDS011;15330;51.234;6.754;2022-12-07T03:14:34;46.72;;;30.58;;
28003;SDS011;15330;51.234;6.754;2022-12-07T03:17:10;46.50;;;30.08;;
28003;SDS011;15330;51.234;6.754;2022-12-07T03:19:41;48.60;;;30.05;;
28003;SDS011;15330;51.234;6.754;2022-12-07T03:22:10;53.47;;;32.28;;
28003;SDS011;15330;51.234;6.754;2022-12-07T03:24:47;49.05;;;31.02;;
28003;SDS011;15330;51.234;6.754;2022-12-07T03:27:21;49.80;;;31.40;;
28003;SDS011;15330;51.234;6.754;2022-12-07T03:29:54;47.25;;;29.73;;
28003;SDS011;15330;51.234;6.754;2022-12-07T03:32:44;46.30;;;29.85;;
28003;SDS011;15330;51.234;6.754;2022-12-07T03:35:18;49.00;;;29.80;;
28003;SDS011;15330;51.234;6.754;2022-12-07T03:37:54;41.50;;;28.23;;
28003;SDS011;15330;51.234;6.754;2022-12-07T03:40:23;48.30;;;30.20;;
28003;SDS011;15330;51.234;6.754;2022-12-07T03:42:57;48.67;;;31.15;;
28003;SDS011;15330;51.234;6.754;2022-12-07T03:45:29;47.58;;;31.52;;
28003;SDS011;15330;51.234;6.754;2022-12-07T03:48:04;41.00;;;28.67;;
28003;SDS011;15330;51.234;6.754;2022-12-07T03:53:22;47.20;;;29.40;;
28003;SDS011;15330;51.234;6.754;2022-12-07T03:55:54;44.92;;;28.83;;
28003;SDS011;15330;51.234;6.754;2022-12-07T03:58:22;45.65;;;28.67;;
28003;SDS011;15330;51.234;6.754;2022-12-07T04:00:49;42.97;;;30.10;;
28003;SDS011;15330;51.234;6.754;2022-12-07T04:03:15;47.30;;;29.63;;
28003;SDS011;15330;51.234;6.754;2022-12-07T04:05:40;48.65;;;30.52;;
28003;SDS011;15330;51.234;6.754;2022-12-07T04:08:06;46.60;;;29.05;;
28003;SDS011;15330;51.234;6.754;2022-12-07T04:10:31;45.97;;;28.98;;
28003;SDS011;15330;51.234;6.754;2022-12-07T04:12:57;46.15;;;28.75;;
28003;SDS011;15330;51.234;6.754;2022-12-07T04:15:22;45.28;;;28.48;;
28003;SDS011;15330;51.234;6.754;2022-12-07T04:17:48;43.50;;;29.65;;
28003;SDS011;15330;51.234;6.754;2022-12-07T04:20:13;49.03;;;29.10;;
28003;SDS011;15330;51.234;6.754;2022-12-07T04:22:38;45.40;;;30.98;;
28003;SDS011;15330;51.234;6.754;2022-12-07T04:25:04;44.40;;;28.73;;
28003;SDS011;15330;51.234;6.754;2022-12-07T04:27:30;47.78;;;27.70;;
28003;SDS011;15330;51.234;6.754;2022-12-07T04:29:56;41.38;;;27.13;;
28003;SDS011;15330;51.234;6.754;2022-12-07T04:32:22;41.78;;;28.00;;
28003;SDS011;15330;51.234;6.754;2022-12-07T04:34:48;44.03;;;27.67;;
28003;SDS011;15330;51.234;6.754;2022-12-07T04:37:13;48.40;;;27.50;;
28003;SDS011;15330;51.234;6.754;2022-12-07T04:39:39;36.70;;;24.02;;
28003;SDS011;15330;51.234;6.754;2022-12-07T04:42:04;38.78;;;25.67;;
28003;SDS011;15330;51.234;6.754;2022-12-07T04:44:30;41.05;;;25.30;;
28003;SDS011;15330;51.234;6.754;2022-12-07T04:46:55;41.90;;;25.17;;
28003;SDS011;15330;51.234;6.754;2022-12-07T04:49:22;41.38;;;25.65;;
28003;SDS011;15330;51.234;6.754;2022-12-07T04:51:48;47.65;;;25.35;;
28003;SDS011;15330;51.234;6.754;2022-12-07T04:54:14;35.38;;;24.17;;
28003;SDS011;15330;51.234;6.754;2022-12-07T04:56:40;37.65;;;24.45;;
28003;SDS011;15330;51.234;6.754;2022-12-07T04:59:05;36.50;;;22.33;;
28003;SDS011;15330;51.234;6.754;2022-12-07T05:01:31;32.40;;;22.10;;
28003;SDS011;15330;51.234;6.754;2022-12-07T05:03:58;41.05;;;21.98;;
28003;SDS011;15330;51.234;6.754;2022-12-07T05:06:24;34.13;;;21.23;;
28003;SDS011;15330;51.234;6.754;2022-12-07T05:08:49;32.83;;;20.35;;
28003;SDS011;15330;51.234;6.754;2022-12-07T05:11:15;34.50;;;21.80;;
28003;SDS011;15330;51.234;6.754;2022-12-07T05:13:59;29.48;;;21.02;;
28003;SDS011;15330;51.234;6.754;2022-12-07T05:16:24;29.92;;;19.58;;
28003;SDS011;15330;51.234;6.754;2022-12-07T05:18:50;30.75;;;18.40;;
28003;SDS011;15330;51.234;6.754;2022-12-07T05:21:15;28.63;;;18.65;;
28003;SDS011;15330;51.234;6.754;2022-12-07T05:23:40;39.38;;;18.33;;
28003;SDS011;15330;51.234;6.754;2022-12-07T05:26:06;37.00;;;18.85;;
28003;SDS011;15330;51.234;6.754;2022-12-07T05:28:31;24.30;;;16.08;;
28003;SDS011;15330;51.234;6.754;2022-12-07T05:30:56;26.83;;;16.10;;
28003;SDS011;15330;51.234;6.754;2022-12-07T05:33:22;22.50;;;16.00;;
28003;SDS011;15330;51.234;6.754;2022-12-07T05:35:47;25.77;;;17.00;;
28003;SDS011;15330;51.234;6.754;2022-12-07T05:38:12;25.73;;;17.35;;
28003;SDS011;15330;51.234;6.754;2022-12-07T05:40:38;27.45;;;16.75;;
28003;SDS011;15330;51.234;6.754;2022-12-07T05:43:03;29.20;;;16.58;;
28003;SDS011;15330;51.234;6.754;2022-12-07T05:45:28;26.73;;;16.50;;
28003;SDS011;15330;51.234;6.754;2022-12-07T05:47:54;23.95;;;15.88;;
28003;SDS011;15330;51.234;6.754;2022-12-07T05:50:19;26.08;;;15.52;;
28003;SDS011;15330;51.234;6.754;2022-12-07T05:52:45;26.77;;;16.33;;
28003;SDS011;15330;51.234;6.754;2022-12-07T05:55:10;27.88;;;17.23;;
28003;SDS011;15330;51.234;6.754;2022-12-07T05:57:35;27.10;;;17.67;;
28003;SDS011;15330;51.234;6.754;2022-12-07T06:00:01;29.90;;;18.23;;
28003;SDS011;15330;51.234;6.754;2022-12-07T06:02:28;27.48;;;16.30;;
28003;SDS011;15330;51.234;6.754;2022-12-07T06:04:53;28.02;;;18.38;;
28003;SDS011;15330;51.234;6.754;2022-12-07T06:07:18;26.60;;;16.40;;
28003;SDS011;15330;51.234;6.754;2022-12-07T06:09:44;22.85;;;16.55;;
28003;SDS011;15330;51.234;6.754;2022-12-07T06:12:10;21.70;;;15.65;;
28003;SDS011;15330;51.234;6.754;2022-12-07T06:14:54;26.90;;;15.82;;
28003;SDS011;15330;51.234;6.754;2022-12-07T06:17:20;25.02;;;16.17;;
28003;SDS011;15330;51.234;6.754;2022-12-07T06:19:45;26.90;;;16.50;;
28003;SDS011;15330;51.234;6.754;2022-12-07T06:22:11;30.30;;;16.35;;
28003;SDS011;15330;51.234;6.754;2022-12-07T06:24:37;21.80;;;15.07;;
28003;SDS011;15330;51.234;6.754;2022-12-07T06:27:03;21.92;;;13.70;;
28003;SDS011;15330;51.234;6.754;2022-12-07T06:29:29;27.40;;;15.45;;
28003;SDS011;15330;51.234;6.754;2022-12-07T06:31:55;22.85;;;15.57;;
28003;SDS011;15330;51.234;6.754;2022-12-07T06:34:21;26.27;;;15.57;;
28003;SDS011;15330;51.234;6.754;2022-12-07T06:36:47;29.00;;;17.52;;
28003;SDS011;15330;51.234;6.754;2022-12-07T06:39:16;49.88;;;30.08;;
28003;SDS011;15330;51.234;6.754;2022-12-07T06:41:43;28.00;;;17.05;;
28003;SDS011;15330;51.234;6.754;2022-12-07T06:44:08;26.35;;;17.75;;
28003;SDS011;15330;51.234;6.754;2022-12-07T06:46:33;27.10;;;16.00;;
28003;SDS011;15330;51.234;6.754;2022-12-07T06:49:00;22.67;;;15.77;;
28003;SDS011;15330;51.234;6.754;2022-12-07T06:51:26;25.75;;;16.00;;
28003;SDS011;15330;51.234;6.754;2022-12-07T06:53:51;23.38;;;15.07;;
28003;SDS011;15330;51.234;6.754;2022-12-07T06:56:17;20.98;;;14.68;;
28003;SDS011;15330;51.234;6.754;2022-12-07T06:58:42;25.58;;;14.75;;
28003;SDS011;15330;51.234;6.754;2022-12-07T07:01:08;28.50;;;14.50;;
28003;SDS011;15330;51.234;6.754;2022-12-07T07:03:38;21.90;;;12.70;;
28003;SDS011;15330;51.234;6.754;2022-12-07T07:06:03;17.00;;;11.85;;
28003;SDS011;15330;51.234;6.754;2022-12-07T07:08:30;23.10;;;12.32;;
28003;SDS011;15330;51.234;6.754;2022-12-07T07:10:55;24.08;;;12.15;;
28003;SDS011;15330;51.234;6.754;2022-12-07T07:13:21;19.17;;;12.50;;
28003;SDS011;15330;51.234;6.754;2022-12-07T07:15:46;43.53;;;27.35;;
28003;SDS011;15330;51.234;6.754;2022-12-07T07:18:12;24.52;;;15.88;;
28003;SDS011;15330;51.234;6.754;2022-12-07T07:20:37;18.30;;;12.88;;
28003;SDS011;15330;51.234;6.754;2022-12-07T07:23:03;21.02;;;12.77;;
28003;SDS011;15330;51.234;6.754;2022-12-07T07:25:29;27.48;;;15.60;;
28003;SDS011;15330;51.234;6.754;2022-12-07T07:27:54;23.63;;;12.98;;
28003;SDS011;15330;51.234;6.754;2022-12-07T07:30:19;26.83;;;14.43;;
28003;SDS011;15330;51.234;6.754;2022-12-07T07:32:45;30.30;;;19.40;;
28003;SDS011;15330;51.234;6.754;2022-12-07T07:35:10;44.35;;;24.00;;
28003;SDS011;15330;51.234;6.754;2022-12-07T07:37:36;36.17;;;20.67;;
28003;SDS011;15330;51.234;6.754;2022-12-07T07:40:01;26.88;;;14.15;;
28003;SDS011;15330;51.234;6.754;2022-12-07T07:42:27;34.40;;;18.77;;
28003;SDS011;15330;51.234;6.754;2022-12-07T07:44:52;29.23;;;16.33;;
28003;SDS011;15330;51.234;6.754;2022-12-07T07:47:18;22.98;;;14.35;;
28003;SDS011;15330;51.234;6.754;2022-12-07T07:49:43;29.08;;;17.08;;
28003;SDS011;15330;51.234;6.754;2022-12-07T07:52:09;20.15;;;13.68;;
28003;SDS011;15330;51.234;6.754;2022-12-07T07:54:34;22.67;;;13.77;;
28003;SDS011;15330;51.234;6.754;2022-12-07T07:57:00;35.40;;;21.60;;
28003;SDS011;15330;51.234;6.754;2022-12-07T07:59:25;41.05;;;27.42;;
28003;SDS011;15330;51.234;6.754;2022-12-07T08:01:50;24.95;;;14.73;;
28003;SDS011;15330;51.234;6.754;2022-12-07T08:04:16;23.02;;;14.60;;
28003;SDS011;15330;51.234;6.754;2022-12-07T08:06:41;27.98;;;14.80;;
28003;SDS011;15330;51.234;6.754;2022-12-07T08:09:07;21.30;;;13.48;;
28003;SDS011;15330;51.234;6.754;2022-12-07T08:11:33;33.42;;;18.27;;
28003;SDS011;15330;51.234;6.754;2022-12-07T08:13:59;34.15;;;17.95;;
28003;SDS011;15330;51.234;6.754;2022-12-07T08:16:24;21.48;;;12.93;;
28003;SDS011;15330;51.234;6.754;2022-12-07T08:18:49;24.80;;;13.38;;
28003;SDS011;15330;51.234;6.754;2022-12-07T08:21:15;24.48;;;11.70;;
28003;SDS011;15330;51.234;6.754;2022-12-07T08:23:40;32.90;;;19.63;;
28003;SDS011;15330;51.234;6.754;2022-12-07T08:26:07;21.23;;;12.57;;
28003;SDS011;15330;51.234;6.754;2022-12-07T08:28:35;24.40;;;12.90;;
28003;SDS011;15330;51.234;6.754;2022-12-07T08:31:02;26.92;;;11.20;;
28003;SDS011;15330;51.234;6.754;2022-12-07T08:33:32;19.42;;;10.40;;
28003;SDS011;15330;51.234;6.754;2022-12-07T08:36:02;22.33;;;12.60;;
28003;SDS011;15330;51.234;6.754;2022-12-07T08:38:29;43.38;;;24.73;;
28003;SDS011;15330;51.234;6.754;2022-12-07T08:40:55;31.58;;;15.98;;
28003;SDS011;15330;51.234;6.754;2022-12-07T08:43:21;50.40;;;26.30;;
28003;SDS011;15330;51.234;6.754;2022-12-07T08:45:48;23.60;;;11.80;;
28003;SDS011;15330;51.234;6.754;2022-12-07T08:48:17;21.27;;;10.90;;
28003;SDS011;15330;51.234;6.754;2022-12-07T08:50:46;16.52;;;10.55;;
28003;SDS011;15330;51.234;6.754;2022-12-07T08:53:12;19.20;;;10.23;;
28003;SDS011;15330;51.234;6.754;2022-12-07T08:55:38;19.38;;;9.93;;
28003;SDS011;15330;51.234;6.754;2022-12-07T08:58:03;17.20;;;10.50;;
28003;SDS011;15330;51.234;6.754;2022-12-07T09:00:29;26.60;;;11.23;;
28003;SDS011;15330;51.234;6.754;2022-12-07T09:02:54;17.08;;;9.43;;
28003;SDS011;15330;51.234;6.754;2022-12-07T09:05:20;19.13;;;9.82;;
28003;SDS011;15330;51.234;6.754;2022-12-07T09:07:46;18.98;;;9.52;;
28003;SDS011;15330;51.234;6.754;2022-12-07T09:10:14;16.48;;;9.25;;
28003;SDS011;15330;51.234;6.754;2022-12-07T09:12:39;13.60;;;9.15;;
28003;SDS011;15330;51.234;6.754;2022-12-07T09:15:05;14.27;;;8.10;;
28003;SDS011;15330;51.234;6.754;2022-12-07T09:17:33;12.45;;;7.65;;
28003;SDS011;15330;51.234;6.754;2022-12-07T09:20:00;14.80;;;7.88;;
28003;SDS011;15330;51.234;6.754;2022-12-07T09:22:29;13.13;;;8.68;;
28003;SDS011;15330;51.234;6.754;2022-12-07T09:24:56;14.20;;;7.72;;
28003;SDS011;15330;51.234;6.754;2022-12-07T09:27:22;16.15;;;8.13;;
28003;SDS011;15330;51.234;6.754;2022-12-07T09:29:47;13.68;;;8.20;;
28003;SDS011;15330;51.234;6.754;2022-12-07T09:32:15;15.40;;;8.13;;
28003;SDS011;15330;51.234;6.754;2022-12-07T09:34:40;15.70;;;8.13;;
28003;SDS011;15330;51.234;6.754;2022-12-07T09:37:06;16.88;;;8.25;;
28003;SDS011;15330;51.234;6.754;2022-12-07T09:39:31;18.20;;;9.30;;
28003;SDS011;15330;51.234;6.754;2022-12-07T09:41:57;18.48;;;8.77;;
28003;SDS011;15330;51.234;6.754;2022-12-07T09:44:24;17.27;;;10.05;;
28003;SDS011;15330;51.234;6.754;2022-12-07T09:46:51;15.88;;;8.30;;
28003;SDS011;15330;51.234;6.754;2022-12-07T09:49:19;19.52;;;9.23;;
28003;SDS011;15330;51.234;6.754;2022-12-07T09:51:46;16.05;;;8.65;;
28003;SDS011;15330;51.234;6.754;2022-12-07T09:54:12;15.23;;;8.88;;
28003;SDS011;15330;51.234;6.754;2022-12-07T09:56:39;13.40;;;7.85;;
28003;SDS011;15330;51.234;6.754;2022-12-07T09:59:05;21.42;;;8.38;;
28003;SDS011;15330;51.234;6.754;2022-12-07T10:01:31;16.60;;;9.48;;
28003;SDS011;15330;51.234;6.754;2022-12-07T10:04:09;20.60;;;10.20;;
28003;SDS011;15330;51.234;6.754;2022-12-07T10:06:39;18.15;;;8.15;;
28003;SDS011;15330;51.234;6.754;2022-12-07T10:09:11;15.95;;;8.73;;
28003;SDS011;15330;51.234;6.754;2022-12-07T10:14:27;21.17;;;8.40;;
28003;SDS011;15330;51.234;6.754;2022-12-07T10:16:54;27.63;;;11.60;;
28003;SDS011;15330;51.234;6.754;2022-12-07T10:22:09;24.80;;;13.02;;
28003;SDS011;15330;51.234;6.754;2022-12-07T10:24:42;19.63;;;10.15;;
28003;SDS011;15330;51.234;6.754;2022-12-07T10:27:17;16.88;;;9.43;;
28003;SDS011;15330;51.234;6.754;2022-12-07T10:29:51;16.60;;;9.18;;
28003;SDS011;15330;51.234;6.754;2022-12-07T10:34:43;16.83;;;9.68;;
28003;SDS011;15330;51.234;6.754;2022-12-07T10:42:15;34.10;;;19.20;;
28003;SDS011;15330;51.234;6.754;2022-12-07T10:47:59;26.83;;;12.52;;
28003;SDS011;15330;51.234;6.754;2022-12-07T10:50:41;41.13;;;18.20;;
28003;SDS011;15330;51.234;6.754;2022-12-07T11:01:33;21.70;;;11.05;;
28003;SDS011;15330;51.234;6.754;2022-12-07T11:14:40;11.98;;;6.88;;
28003;SDS011;15330;51.234;6.754;2022-12-07T11:22:41;20.52;;;10.15;;
28003;SDS011;15330;51.234;6.754;2022-12-07T11:25:25;18.10;;;8.18;;
28003;SDS011;15330;51.234;6.754;2022-12-07T11:30:46;14.07;;;6.45;;
28003;SDS011;15330;51.234;6.754;2022-12-07T11:37:08;20.23;;;11.88;;
28003;SDS011;15330;51.234;6.754;2022-12-07T11:39:28;13.25;;;5.43;;
28003;SDS011;15330;51.234;6.754;2022-12-07T11:42:20;22.63;;;7.20;;
28003;SDS011;15330;51.234;6.754;2022-12-07T11:45:02;12.57;;;5.85;;
28003;SDS011;15330;51.234;6.754;2022-12-07T11:47:40;15.77;;;6.47;;
28003;SDS011;15330;51.234;6.754;2022-12-07T11:50:32;10.38;;;5.95;;
28003;SDS011;15330;51.234;6.754;2022-12-07T11:53:00;17.88;;;6.10;;
28003;SDS011;15330;51.234;6.754;2022-12-07T12:06:39;14.43;;;6.82;;
28003;SDS011;15330;51.234;6.754;2022-12-07T12:09:11;33.03;;;15.48;;
28003;SDS011;15330;51.234;6.754;2022-12-07T12:19:32;17.88;;;8.73;;
28003;SDS011;15330;51.234;6.754;2022-12-07T12:22:18;16.05;;;8.27;;
28003;SDS011;15330;51.234;6.754;2022-12-07T12:24:48;26.40;;;14.50;;
28003;SDS011;15330;51.234;6.754;2022-12-07T12:27:21;14.02;;;6.63;;
28003;SDS011;15330;51.234;6.754;2022-12-07T12:29:54;14.57;;;7.95;;
28003;SDS011;15330;51.234;6.754;2022-12-07T12:32:44;20.33;;;7.68;;
28003;SDS011;15330;51.234;6.754;2022-12-07T12:37:48;17.10;;;8.13;;
28003;SDS011;15330;51.234;6.754;2022-12-07T12:42:45;13.30;;;6.70;;
28003;SDS011;15330;51.234;6.754;2022-12-07T12:45:29;16.83;;;6.95;;
28003;SDS011;15330;51.234;6.754;2022-12-07T12:47:59;12.13;;;7.20;;
28003;SDS011;15330;51.234;6.754;2022-12-07T12:50:28;14.20;;;6.55;;
28003;SDS011;15330;51.234;6.754;2022-12-07T12:53:03;15.05;;;6.07;;
28003;SDS011;15330;51.234;6.754;2022-12-07T12:58:46;14.90;;;6.50;;
28003;SDS011;15330;51.234;6.754;2022-12-07T13:04:00;18.13;;;6.88;;
28003;SDS011;15330;51.234;6.754;2022-12-07T13:08:56;15.52;;;6.85;;
28003;SDS011;15330;51.234;6.754;2022-12-07T13:11:45;13.80;;;6.05;;
28003;SDS011;15330;51.234;6.754;2022-12-07T13:17:12;10.85;;;5.30;;
28003;SDS011;15330;51.234;6.754;2022-12-07T13:19:56;24.23;;;10.88;;
28003;SDS011;15330;51.234;6.754;2022-12-07T13:27:46;14.95;;;6.45;;
28003;SDS011;15330;51.234;6.754;2022-12-07T13:30:19;10.32;;;5.40;;
28003;SDS011;15330;51.234;6.754;2022-12-07T13:32:58;15.43;;;6.00;;
28003;SDS011;15330;51.234;6.754;2022-12-07T13:35:32;11.48;;;4.25;;
28003;SDS011;15330;51.234;6.754;2022-12-07T13:38:04;14.32;;;3.92;;
28003;SDS011;15330;51.234;6.754;2022-12-07T13:40:34;12.65;;;6.88;;
28003;SDS011;15330;51.234;6.754;2022-12-07T13:43:03;12.93;;;5.65;;
28003;SDS011;15330;51.234;6.754;2022-12-07T13:45:37;11.25;;;4.68;;
28003;SDS011;15330;51.234;6.754;2022-12-07T13:48:35;12.95;;;4.40;;
28003;SDS011;15330;51.234;6.754;2022-12-07T13:51:12;12.63;;;4.10;;
28003;SDS011;15330;51.234;6.754;2022-12-07T13:53:49;11.80;;;5.28;;
28003;SDS011;15330;51.234;6.754;2022-12-07T13:56:35;8.75;;;3.72;;
28003;SDS011;15330;51.234;6.754;2022-12-07T13:59:01;11.00;;;5.03;;
28003;SDS011;15330;51.234;6.754;2022-12-07T14:01:28;11.40;;;5.22;;
28003;SDS011;15330;51.234;6.754;2022-12-07T14:03:56;13.07;;;4.30;;
28003;SDS011;15330;51.234;6.754;2022-12-07T14:06:48;14.15;;;5.22;;
28003;SDS011;15330;51.234;6.754;2022-12-07T14:09:18;9.52;;;2.90;;
28003;SDS011;15330;51.234;6.754;2022-12-07T14:11:45;9.82;;;3.35;;
28003;SDS011;15330;51.234;6.754;2022-12-07T14:14:14;14.30;;;3.45;;
28003;SDS011;15330;51.234;6.754;2022-12-07T14:16:42;13.95;;;3.65;;
28003;SDS011;15330;51.234;6.754;2022-12-07T14:19:51;12.20;;;4.45;;
28003;SDS011;15330;51.234;6.754;2022-12-07T14:28:09;10.77;;;3.65;;
28003;SDS011;15330;51.234;6.754;2022-12-07T14:30:49;17.58;;;8.60;;
28003;SDS011;15330;51.234;6.754;2022-12-07T14:33:14;13.98;;;5.30;;
28003;SDS011;15330;51.234;6.754;2022-12-07T14:35:40;16.30;;;9.20;;
28003;SDS011;15330;51.234;6.754;2022-12-07T14:38:05;15.43;;;6.70;;
28003;SDS011;15330;51.234;6.754;2022-12-07T14:40:31;13.60;;;6.18;;
28003;SDS011;15330;51.234;6.754;2022-12-07T14:42:59;16.42;;;6.00;;
28003;SDS011;15330;51.234;6.754;2022-12-07T14:45:26;13.77;;;5.28;;
28003;SDS011;15330;51.234;6.754;2022-12-07T14:47:52;12.57;;;5.10;;
28003;SDS011;15330;51.234;6.754;2022-12-07T14:50:18;11.95;;;5.72;;
28003;SDS011;15330;51.234;6.754;2022-12-07T14:52:46;17.65;;;6.32;;
28003;SDS011;15330;51.234;6.754;2022-12-07T14:55:25;17.92;;;6.07;;
28003;SDS011;15330;51.234;6.754;2022-12-07T14:57:52;12.63;;;5.53;;
28003;SDS011;15330;51.234;6.754;2022-12-07T15:00:18;13.10;;;5.40;;
28003;SDS011;15330;51.234;6.754;2022-12-07T15:02:45;12.20;;;5.18;;
28003;SDS011;15330;51.234;6.754;2022-12-07T15:05:12;14.55;;;5.47;;
28003;SDS011;15330;51.234;6.754;2022-12-07T15:07:38;31.58;;;19.35;;
28003;SDS011;15330;51.234;6.754;2022-12-07T15:10:04;58.63;;;32.80;;
28003;SDS011;15330;51.234;6.754;2022-12-07T15:12:30;15.20;;;6.50;;
28003;SDS011;15330;51.234;6.754;2022-12-07T15:14:56;15.35;;;7.00;;
28003;SDS011;15330;51.234;6.754;2022-12-07T15:17:21;12.75;;;5.72;;
28003;SDS011;15330;51.234;6.754;2022-12-07T15:19:47;15.07;;;6.25;;
28003;SDS011;15330;51.234;6.754;2022-12-07T15:22:12;12.77;;;5.72;;
28003;SDS011;15330;51.234;6.754;2022-12-07T15:24:37;21.05;;;9.05;;
28003;SDS011;15330;51.234;6.754;2022-12-07T15:27:03;21.23;;;8.70;;
28003;SDS011;15330;51.234;6.754;2022-12-07T15:29:28;31.15;;;12.25;;
28003;SDS011;15330;51.234;6.754;2022-12-07T15:31:54;16.88;;;7.03;;
28003;SDS011;15330;51.234;6.754;2022-12-07T15:34:20;19.05;;;6.40;;
28003;SDS011;15330;51.234;6.754;2022-12-07T15:36:46;13.10;;;5.72;;
28003;SDS011;15330;51.234;6.754;2022-12-07T15:39:11;13.52;;;5.43;;
28003;SDS011;15330;51.234;6.754;2022-12-07T15:41:36;10.80;;;4.85;;
28003;SDS011;15330;51.234;6.754;2022-12-07T15:44:02;14.80;;;8.00;;
28003;SDS011;15330;51.234;6.754;2022-12-07T15:46:46;20.67;;;9.13;;
28003;SDS011;15330;51.234;6.754;2022-12-07T15:49:13;14.32;;;5.63;;
28003;SDS011;15330;51.234;6.754;2022-12-07T15:51:41;16.40;;;6.30;;
28003;SDS011;15330;51.234;6.754;2022-12-07T15:54:09;15.35;;;5.50;;
28003;SDS011;15330;51.234;6.754;2022-12-07T15:56:38;20.15;;;6.55;;
28003;SDS011;15330;51.234;6.754;2022-12-07T15:59:03;19.75;;;8.05;;
28003;SDS011;15330;51.234;6.754;2022-12-07T16:01:29;14.00;;;6.03;;
28003;SDS011;15330;51.234;6.754;2022-12-07T16:03:54;17.92;;;6.57;;
28003;SDS011;15330;51.234;6.754;2022-12-07T16:06:22;21.10;;;7.15;;
28003;SDS011;15330;51.234;6.754;2022-12-07T16:08:47;17.65;;;7.68;;
28003;SDS011;15330;51.234;6.754;2022-12-07T16:11:12;13.93;;;7.20;;
28003;SDS011;15330;51.234;6.754;2022-12-07T16:13:38;13.88;;;6.38;;
28003;SDS011;15330;51.234;6.754;2022-12-07T16:16:08;23.77;;;9.50;;
28003;SDS011;15330;51.234;6.754;2022-12-07T16:18:36;18.20;;;6.85;;
28003;SDS011;15330;51.234;6.754;2022-12-07T16:21:02;17.52;;;8.90;;
28003;SDS011;15330;51.234;6.754;2022-12-07T16:23:27;15.68;;;6.72;;
28003;SDS011;15330;51.234;6.754;2022-12-07T16:25:53;27.95;;;15.32;;
28003;SDS011;15330;51.234;6.754;2022-12-07T16:28:19;23.85;;;8.27;;
28003;SDS011;15330;51.234;6.754;2022-12-07T16:30:44;14.55;;;8.48;;
28003;SDS011;15330;51.234;6.754;2022-12-07T16:33:10;17.00;;;8.15;;
28003;SDS011;15330;51.234;6.754;2022-12-07T16:35:38;30.58;;;16.60;;
28003;SDS011;15330;51.234;6.754;2022-12-07T16:38:05;18.63;;;8.70;;
28003;SDS011;15330;51.234;6.754;2022-12-07T16:40:31;20.05;;;11.02;;